sensor_id;sensor_type;location;lat;lon;timestamp;pressure;altitude;pressure_sealevel;temperature;humidity
7157;BME280;3620;49.862;8.758;2023-02-01T00:01:50;99744.34;;;6.41;100.00
7157;BME280;3620;49.862;8.758;2023-02-01T00:04:17;99755.84;;;6.32;100.00
7157;BME280;3620;49.862;8.758;2023-02-01T00:06:43;99746.38;;;6.27;100.00
7157;BME280;3620;49.862;8.758;2023-02-01T00:09:10;99758.59;;;6.25;100.00
7157;BME280;3620;49.862;8.758;2023-02-01T00:11:36;99743.69;;;6.30;100.00
7157;BME280;3620;49.862;8.758;2023-02-01T00:14:04;99746.25;;;6.33;100.00
7157;BME280;3620;49.862;8.758;2023-02-01T00:16:31;99746.97;;;6.41;100.00
7157;BME280;3620;49.862;8.758;2023-02-01T00:18:59;99742.75;;;6.34;100.00
7157;BME280;3620;49.862;8.758;2023-02-01T00:21:27;99742.75;;;6.34;100.00
7157;BME280;3620;49.862;8.758;2023-02-01T00:23:54;99739.25;;;6.35;100.00
7157;BME280;3620;49.862;8.758;2023-02-01T00:26:25;99747.06;;;6.36;100.00
7157;BME280;3620;49.862;8.758;2023-02-01T00:28:53;99745.16;;;6.43;100.00
7157;BME280;3620;49.862;8.758;2023-02-01T00:31:21;99747.00;;;6.39;100.00
7157;BME280;3620;49.862;8.758;2023-02-01T00:33:47;99748.84;;;6.34;100.00
7157;BME280;3620;49.862;8.758;2023-02-01T00:36:14;99738.63;;;6.22;100.00
7157;BME280;3620;49.862;8.758;2023-02-01T00:38:41;99748.16;;;6.25;100.00
7157;BME280;3620;49.862;8.758;2023-02-01T00:41:11;99754.78;;;6.41;100.00
7157;BME280;3620;49.862;8.758;2023-02-01T00:43:38;99754.97;;;6.32;100.00
7157;BME280;3620;49.862;8.758;2023-02-01T00:46:05;99754.84;;;6.38;100.00
7157;BME280;3620;49.862;8.758;2023-02-01T00:48:33;99735.06;;;6.26;100.00
7157;BME280;3620;49.862;8.758;2023-02-01T00:51:00;99729.75;;;6.31;100.00
7157;BME280;3620;49.862;8.758;2023-02-01T00:53:28;99737.59;;;6.31;100.00
7157;BME280;3620;49.862;8.758;2023-02-01T00:55:55;99740.97;;;6.36;100.00
7157;BME280;3620;49.862;8.758;2023-02-01T00:58:22;99733.94;;;6.38;100.00
7157;BME280;3620;49.862;8.758;2023-02-01T01:00:49;99713.91;;;6.40;100.00
7157;BME280;3620;49.862;8.758;2023-02-01T01:03:15;99707.81;;;6.38;100.00
7157;BME280;3620;49.862;8.758;2023-02-01T01:05:47;99714.97;;;6.30;100.00
7157;BME280;3620;49.862;8.758;2023-02-01T01:08:14;99717.66;;;6.25;100.00
7157;BME280;3620;49.862;8.758;2023-02-01T01:10:41;99720.50;;;6.15;100.00
7157;BME280;3620;49.862;8.758;2023-02-01T01:13:08;99706.34;;;6.25;100.00
7157;BME280;3620;49.862;8.758;2023-02-01T01:15:36;99713.38;;;6.23;100.00
7157;BME280;3620;49.862;8.758;2023-02-01T01:18:03;99711.56;;;6.25;100.00
7157;BME280;3620;49.862;8.758;2023-02-01T01:20:29;99713.31;;;6.26;100.00
7157;BME280;3620;49.862;8.758;2023-02-01T01:22:57;99709.78;;;6.27;100.00
7157;BME280;3620;49.862;8.758;2023-02-01T01:25:24;99711.53;;;6.28;100.00
7157;BME280;3620;49.862;8.758;2023-02-01T01:27:50;99716.69;;;6.31;100.00
7157;BME280;3620;49.862;8.758;2023-02-01T01:30:17;99706.34;;;6.25;100.00
7157;BME280;3620;49.862;8.758;2023-02-01T01:32:44;99702.81;;;6.29;100.00
7157;BME280;3620;49.862;8.758;2023-02-01T01:35:11;99710.56;;;6.32;100.00
7157;BME280;3620;49.862;8.758;2023-02-01T01:37:37;99708.13;;;6.23;100.00
7157;BME280;3620;49.862;8.758;2023-02-01T01:40:07;99695.84;;;6.28;100.00
7157;BME280;3620;49.862;8.758;2023-02-01T01:42:36;99706.44;;;6.22;100.00
7157;BME280;3620;49.862;8.758;2023-02-01T01:45:06;99715.97;;;6.24;100.00
7157;BME280;3620;49.862;8.758;2023-02-01T01:47:36;99701.81;;;6.34;100.00
7157;BME280;3620;49.862;8.758;2023-02-01T01:50:07;99688.84;;;6.30;100.00
7157;BME280;3620;49.862;8.758;2023-02-01T01:52:35;99685.16;;;6.40;100.00
7157;BME280;3620;49.862;8.758;2023-02-01T01:55:03;99676.56;;;6.35;100.00
7157;BME280;3620;49.862;8.758;2023-02-01T01:57:35;99682.75;;;6.31;100.00
7157;BME280;3620;49.862;8.758;2023-02-01T02:00:07;99675.09;;;6.22;100.00
7157;BME280;3620;49.862;8.758;2023-02-01T02:02:34;99673.34;;;6.21;100.00
7157;BME280;3620;49.862;8.758;2023-02-01T02:05:03;99672.44;;;6.23;100.00
7157;BME280;3620;49.862;8.758;2023-02-01T02:07:32;99678.44;;;6.27;100.00
7157;BME280;3620;49.862;8.758;2023-02-01T02:10:03;99668.63;;;6.39;100.00
7157;BME280;3620;49.862;8.758;2023-02-01T02:12:33;99665.19;;;6.37;100.00
7157;BME280;3620;49.862;8.758;2023-02-01T02:14:59;99667.94;;;6.30;100.00
7157;BME280;3620;49.862;8.758;2023-02-01T02:17:31;99660.78;;;6.38;100.00
7157;BME280;3620;49.862;8.758;2023-02-01T02:20:24;99653.91;;;6.34;100.00
7157;BME280;3620;49.862;8.758;2023-02-01T02:23:39;99657.44;;;6.33;100.00
7157;BME280;3620;49.862;8.758;2023-02-01T02:26:47;99640.91;;;6.32;100.00
7157;BME280;3620;49.862;8.758;2023-02-01T02:29:39;99647.72;;;6.38;100.00
7157;BME280;3620;49.862;8.758;2023-02-01T02:32:33;99661.84;;;6.29;100.00
7157;BME280;3620;49.862;8.758;2023-02-01T02:35:07;99652.31;;;6.27;100.00
7157;BME280;3620;49.862;8.758;2023-02-01T02:37:40;99651.53;;;6.63;100.00
7157;BME280;3620;49.862;8.758;2023-02-01T02:40:14;99650.13;;;6.47;100.00
7157;BME280;3620;49.862;8.758;2023-02-01T02:42:47;99652.06;;;6.39;100.00
7157;BME280;3620;49.862;8.758;2023-02-01T02:45:39;99648.34;;;6.49;100.00
7157;BME280;3620;49.862;8.758;2023-02-01T02:48:29;99656.69;;;6.66;100.00
7157;BME280;3620;49.862;8.758;2023-02-01T02:51:01;99655.31;;;6.50;100.00
7157;BME280;3620;49.862;8.758;2023-02-01T02:53:53;99663.09;;;6.53;100.00
7157;BME280;3620;49.862;8.758;2023-02-01T02:56:40;99676.69;;;6.67;100.00
7157;BME280;3620;49.862;8.758;2023-02-01T02:59:26;99679.41;;;6.64;100.00
7157;BME280;3620;49.862;8.758;2023-02-01T03:02:12;99684.06;;;6.50;100.00
7157;BME280;3620;49.862;8.758;2023-02-01T03:04:57;99691.50;;;6.68;100.00
7157;BME280;3620;49.862;8.758;2023-02-01T03:07:52;99688.59;;;6.80;100.00
7157;BME280;3620;49.862;8.758;2023-02-01T03:10:24;99679.03;;;6.79;100.00
7157;BME280;3620;49.862;8.758;2023-02-01T03:12:53;99673.44;;;6.94;100.00
7157;BME280;3620;49.862;8.758;2023-02-01T03:15:26;99671.75;;;6.55;100.00
7157;BME280;3620;49.862;8.758;2023-02-01T03:17:57;99685.66;;;6.57;100.00
7157;BME280;3620;49.862;8.758;2023-02-01T03:20:25;99694.31;;;6.59;100.00
7157;BME280;3620;49.862;8.758;2023-02-01T03:22:53;99686.31;;;6.65;100.00
7157;BME280;3620;49.862;8.758;2023-02-01T03:25:25;99684.69;;;6.61;100.00
7157;BME280;3620;49.862;8.758;2023-02-01T03:27:57;99685.91;;;6.45;100.00
7157;BME280;3620;49.862;8.758;2023-02-01T03:30:28;99678.06;;;6.45;100.00
7157;BME280;3620;49.862;8.758;2023-02-01T03:32:58;99681.53;;;6.45;100.00
7157;BME280;3620;49.862;8.758;2023-02-01T03:35:28;99681.84;;;6.32;100.00
7157;BME280;3620;49.862;8.758;2023-02-01T03:38:02;99681.00;;;6.30;100.00
7157;BME280;3620;49.862;8.758;2023-02-01T03:40:33;99671.56;;;6.23;100.00
7157;BME280;3620;49.862;8.758;2023-02-01T03:43:04;99670.09;;;6.10;100.00
7157;BME280;3620;49.862;8.758;2023-02-01T03:45:36;99673.69;;;6.06;100.00
7157;BME280;3620;49.862;8.758;2023-02-01T03:48:06;99663.28;;;6.03;100.00
7157;BME280;3620;49.862;8.758;2023-02-01T03:50:37;99659.06;;;5.97;100.00
7157;BME280;3620;49.862;8.758;2023-02-01T03:53:08;99651.06;;;6.05;100.00
7157;BME280;3620;49.862;8.758;2023-02-01T03:55:36;99638.19;;;5.97;100.00
7157;BME280;3620;49.862;8.758;2023-02-01T03:58:07;99623.47;;;5.91;100.00
7157;BME280;3620;49.862;8.758;2023-02-01T04:00:34;99624.28;;;5.95;100.00
7157;BME280;3620;49.862;8.758;2023-02-01T04:03:01;99629.44;;;6.00;100.00
7157;BME280;3620;49.862;8.758;2023-02-01T04:05:29;99631.16;;;5.99;100.00
7157;BME280;3620;49.862;8.758;2023-02-01T04:07:56;99636.53;;;5.91;100.00
7157;BME280;3620;49.862;8.758;2023-02-01T04:10:24;99631.94;;;6.03;100.00
7157;BME280;3620;49.862;8.758;2023-02-01T04:12:51;99626.72;;;6.03;100.00
7157;BME280;3620;49.862;8.758;2023-02-01T04:15:18;99628.47;;;6.04;100.00
7157;BME280;3620;49.862;8.758;2023-02-01T04:17:44;99638.78;;;6.10;100.00
7157;BME280;3620;49.862;8.758;2023-02-01T04:20:11;99628.50;;;6.01;100.00
7157;BME280;3620;49.862;8.758;2023-02-01T04:22:37;99614.78;;;5.93;100.00
7157;BME280;3620;49.862;8.758;2023-02-01T04:25:05;99619.91;;;5.96;100.00
7157;BME280;3620;49.862;8.758;2023-02-01T04:27:34;99621.59;;;6.00;100.00
7157;BME280;3620;49.862;8.758;2023-02-01T04:30:01;99617.97;;;6.05;100.00
7157;BME280;3620;49.862;8.758;2023-02-01T04:32:27;99616.41;;;5.97;100.00
7157;BME280;3620;49.862;8.758;2023-02-01T04:34:54;99624.94;;;6.05;100.00
7157;BME280;3620;49.862;8.758;2023-02-01T04:37:20;99624.09;;;6.04;100.00
7157;BME280;3620;49.862;8.758;2023-02-01T04:39:47;99633.69;;;6.04;100.00
7157;BME280;3620;49.862;8.758;2023-02-01T04:42:13;99632.81;;;6.03;100.00
7157;BME280;3620;49.862;8.758;2023-02-01T04:44:41;99623.44;;;5.95;100.00
7157;BME280;3620;49.862;8.758;2023-02-01T04:47:08;99635.53;;;5.99;100.00
7157;BME280;3620;49.862;8.758;2023-02-01T04:49:34;99628.50;;;6.01;100.00
7157;BME280;3620;49.862;8.758;2023-02-01T04:52:01;99658.31;;;5.90;100.00
7157;BME280;3620;49.862;8.758;2023-02-01T04:54:28;99643.25;;;6.03;100.00
7157;BME280;3620;49.862;8.758;2023-02-01T04:56:54;99637.34;;;5.93;100.00
7157;BME280;3620;49.862;8.758;2023-02-01T04:59:21;99636.19;;;6.08;100.00
7157;BME280;3620;49.862;8.758;2023-02-01T05:01:49;99644.03;;;6.07;100.00
7157;BME280;3620;49.862;8.758;2023-02-01T05:04:15;99633.81;;;5.98;100.00
7157;BME280;3620;49.862;8.758;2023-02-01T05:06:43;99651.19;;;5.99;100.00
7157;BME280;3620;49.862;8.758;2023-02-01T05:09:10;99646.97;;;5.93;100.00
7157;BME280;3620;49.862;8.758;2023-02-01T05:11:37;99653.84;;;5.97;100.00
7157;BME280;3620;49.862;8.758;2023-02-01T05:14:21;99649.59;;;5.91;100.00
7157;BME280;3620;49.862;8.758;2023-02-01T05:16:49;99641.84;;;5.87;100.00
7157;BME280;3620;49.862;8.758;2023-02-01T05:19:16;99642.75;;;5.86;100.00
7157;BME280;3620;49.862;8.758;2023-02-01T05:21:42;99637.72;;;5.75;100.00
7157;BME280;3620;49.862;8.758;2023-02-01T05:24:09;99635.03;;;5.80;100.00
7157;BME280;3620;49.862;8.758;2023-02-01T05:26:36;99620.28;;;5.77;100.00
7157;BME280;3620;49.862;8.758;2023-02-01T05:29:02;99622.84;;;5.79;100.00
7157;BME280;3620;49.862;8.758;2023-02-01T05:31:29;99616.75;;;5.78;100.00
7157;BME280;3620;49.862;8.758;2023-02-01T05:33:56;99607.97;;;5.82;100.00
7157;BME280;3620;49.862;8.758;2023-02-01T05:36:23;99612.25;;;5.88;100.00
7157;BME280;3620;49.862;8.758;2023-02-01T05:38:49;99611.25;;;5.93;100.00
7157;BME280;3620;49.862;8.758;2023-02-01T05:41:16;99602.59;;;5.91;100.00
7157;BME280;3620;49.862;8.758;2023-02-01T05:43:42;99611.25;;;5.93;100.00
7157;BME280;3620;49.862;8.758;2023-02-01T05:46:09;99614.78;;;5.93;100.00
7157;BME280;3620;49.862;8.758;2023-02-01T05:48:37;99638.31;;;5.89;100.00
7157;BME280;3620;49.862;8.758;2023-02-01T05:51:05;99633.09;;;5.89;100.00
7157;BME280;3620;49.862;8.758;2023-02-01T05:53:32;99634.00;;;5.88;100.00
7157;BME280;3620;49.862;8.758;2023-02-01T05:55:58;99638.47;;;5.80;100.00
7157;BME280;3620;49.862;8.758;2023-02-01T05:58:25;99627.16;;;5.81;100.00
7157;BME280;3620;49.862;8.758;2023-02-01T06:00:52;99625.38;;;5.83;100.00
7157;BME280;3620;49.862;8.758;2023-02-01T06:03:19;99627.06;;;5.87;100.00
7157;BME280;3620;49.862;8.758;2023-02-01T06:05:46;99624.25;;;5.97;100.00
7157;BME280;3620;49.862;8.758;2023-02-01T06:08:14;99630.06;;;6.11;100.00
7157;BME280;3620;49.862;8.758;2023-02-01T06:10:42;99635.19;;;6.14;100.00
7157;BME280;3620;49.862;8.758;2023-02-01T06:13:09;99633.59;;;6.07;100.00
7157;BME280;3620;49.862;8.758;2023-02-01T06:15:35;99629.19;;;6.10;100.00
7157;BME280;3620;49.862;8.758;2023-02-01T06:18:03;99624.75;;;6.14;100.00
7157;BME280;3620;49.862;8.758;2023-02-01T06:20:30;99618.75;;;6.10;100.00
7157;BME280;3620;49.862;8.758;2023-02-01T06:22:56;99617.00;;;6.09;100.00
7157;BME280;3620;49.862;8.758;2023-02-01T06:25:24;99611.06;;;6.03;100.00
7157;BME280;3620;49.862;8.758;2023-02-01T06:27:50;99619.84;;;5.99;100.00
7157;BME280;3620;49.862;8.758;2023-02-01T06:30:17;99624.06;;;6.06;100.00
7157;BME280;3620;49.862;8.758;2023-02-01T06:32:44;99617.88;;;6.10;100.00
7157;BME280;3620;49.862;8.758;2023-02-01T06:35:11;99618.59;;;6.16;100.00
7157;BME280;3620;49.862;8.758;2023-02-01T06:37:41;99617.75;;;6.16;100.00
7157;BME280;3620;49.862;8.758;2023-02-01T06:40:09;99613.78;;;5.98;100.00
7157;BME280;3620;49.862;8.758;2023-02-01T06:42:37;99619.84;;;5.99;100.00
7157;BME280;3620;49.862;8.758;2023-02-01T06:45:04;99616.28;;;6.03;100.00
7157;BME280;3620;49.862;8.758;2023-02-01T06:47:31;99635.38;;;6.05;100.00
7157;BME280;3620;49.862;8.758;2023-02-01T06:49:58;99641.56;;;6.01;100.00
7157;BME280;3620;49.862;8.758;2023-02-01T06:52:24;99635.47;;;6.02;100.00
7157;BME280;3620;49.862;8.758;2023-02-01T06:54:51;99638.94;;;6.02;100.00
7157;BME280;3620;49.862;8.758;2023-02-01T06:57:17;99637.19;;;6.03;100.00
7157;BME280;3620;49.862;8.758;2023-02-01T06:59:45;99626.63;;;6.09;100.00
7157;BME280;3620;49.862;8.758;2023-02-01T07:02:12;99626.63;;;6.09;100.00
7157;BME280;3620;49.862;8.758;2023-02-01T07:04:38;99628.31;;;6.10;100.00
7157;BME280;3620;49.862;8.758;2023-02-01T07:07:05;99636.94;;;6.15;100.00
7157;BME280;3620;49.862;8.758;2023-02-01T07:09:31;99637.94;;;6.08;100.00
7157;BME280;3620;49.862;8.758;2023-02-01T07:11:58;99652.09;;;5.98;100.00
7157;BME280;3620;49.862;8.758;2023-02-01T07:14:24;99647.09;;;5.85;100.00
7157;BME280;3620;49.862;8.758;2023-02-01T07:16:52;99650.59;;;5.84;100.00
7157;BME280;3620;49.862;8.758;2023-02-01T07:19:19;99639.28;;;5.85;100.00
7157;BME280;3620;49.862;8.758;2023-02-01T07:21:45;99634.19;;;5.76;100.00
7157;BME280;3620;49.862;8.758;2023-02-01T07:24:12;99628.19;;;5.73;100.00
7157;BME280;3620;49.862;8.758;2023-02-01T07:26:39;99626.38;;;5.76;100.00
7157;BME280;3620;49.862;8.758;2023-02-01T07:29:06;99630.75;;;5.74;100.00
7157;BME280;3620;49.862;8.758;2023-02-01T07:31:32;99638.34;;;5.88;100.00
7157;BME280;3620;49.862;8.758;2023-02-01T07:34:00;99637.63;;;5.78;100.00
7157;BME280;3620;49.862;8.758;2023-02-01T07:36:28;99639.28;;;5.82;100.00
7157;BME280;3620;49.862;8.758;2023-02-01T07:38:54;99635.78;;;5.86;100.00
7157;BME280;3620;49.862;8.758;2023-02-01T07:41:21;99637.63;;;5.78;100.00
7157;BME280;3620;49.862;8.758;2023-02-01T07:43:47;99641.88;;;5.85;100.00
7157;BME280;3620;49.862;8.758;2023-02-01T07:46:16;99642.06;;;5.75;100.00
7157;BME280;3620;49.862;8.758;2023-02-01T07:48:42;99647.81;;;5.93;100.00
7157;BME280;3620;49.862;8.758;2023-02-01T07:51:13;99649.59;;;5.91;100.00
7157;BME280;3620;49.862;8.758;2023-02-01T07:53:40;99649.59;;;5.91;100.00
7157;BME280;3620;49.862;8.758;2023-02-01T07:56:10;99659.06;;;5.97;100.00
7157;BME280;3620;49.862;8.758;2023-02-01T07:58:37;99664.25;;;5.99;100.00
7157;BME280;3620;49.862;8.758;2023-02-01T08:01:04;99666.72;;;6.05;100.00
7157;BME280;3620;49.862;8.758;2023-02-01T08:03:46;99665.78;;;6.09;100.00
7157;BME280;3620;49.862;8.758;2023-02-01T08:06:14;99684.91;;;6.11;100.00
7157;BME280;3620;49.862;8.758;2023-02-01T08:08:40;99676.25;;;6.07;100.00
7157;BME280;3620;49.862;8.758;2023-02-01T08:11:07;99671.53;;;6.26;100.00
7157;BME280;3620;49.862;8.758;2023-02-01T08:13:34;99680.75;;;6.42;100.00
7157;BME280;3620;49.862;8.758;2023-02-01T08:16:02;99679.84;;;6.43;100.00
7157;BME280;3620;49.862;8.758;2023-02-01T08:18:29;99673.22;;;6.27;100.00
7157;BME280;3620;49.862;8.758;2023-02-01T08:20:56;99679.06;;;6.39;100.00
7157;BME280;3620;49.862;8.758;2023-02-01T08:23:24;99680.66;;;6.46;100.00
7157;BME280;3620;49.862;8.758;2023-02-01T08:25:50;99676.31;;;6.45;100.00
7157;BME280;3620;49.862;8.758;2023-02-01T08:28:17;99681.69;;;6.38;100.00
7157;BME280;3620;49.862;8.758;2023-02-01T08:30:43;99680.81;;;6.39;100.00
7157;BME280;3620;49.862;8.758;2023-02-01T08:33:10;99683.28;;;6.45;100.00
7157;BME280;3620;49.862;8.758;2023-02-01T08:35:37;99681.50;;;6.47;100.00
7157;BME280;3620;49.862;8.758;2023-02-01T08:38:04;99671.81;;;6.52;100.00
7157;BME280;3620;49.862;8.758;2023-02-01T08:40:32;99674.28;;;6.58;100.00
7157;BME280;3620;49.862;8.758;2023-02-01T08:43:01;99689.97;;;6.58;100.00
7157;BME280;3620;49.862;8.758;2023-02-01T08:45:29;99690.69;;;6.64;100.00
7157;BME280;3620;49.862;8.758;2023-02-01T08:47:56;99704.56;;;6.68;100.00
7157;BME280;3620;49.862;8.758;2023-02-01T08:50:24;99702.72;;;6.72;100.00
7157;BME280;3620;49.862;8.758;2023-02-01T08:52:51;99700.69;;;6.86;100.00
7157;BME280;3620;49.862;8.758;2023-02-01T08:55:18;99693.19;;;6.69;100.00
7157;BME280;3620;49.862;8.758;2023-02-01T08:57:47;99701.66;;;6.80;100.00
7157;BME280;3620;49.862;8.758;2023-02-01T09:00:15;99708.63;;;6.81;100.00
7157;BME280;3620;49.862;8.758;2023-02-01T09:02:43;99712.25;;;6.74;100.00
7157;BME280;3620;49.862;8.758;2023-02-01T09:05:09;99714.97;;;6.70;100.00
7157;BME280;3620;49.862;8.758;2023-02-01T09:07:37;99705.44;;;6.67;100.00
7157;BME280;3620;49.862;8.758;2023-02-01T09:10:04;99702.81;;;6.69;100.00
7157;BME280;3620;49.862;8.758;2023-02-01T09:12:33;99704.63;;;6.65;100.00
7157;BME280;3620;49.862;8.758;2023-02-01T09:15:01;99698.16;;;6.81;100.00
7157;BME280;3620;49.862;8.758;2023-02-01T09:17:29;99702.63;;;6.76;100.00
7157;BME280;3620;49.862;8.758;2023-02-01T09:19:55;99700.16;;;6.70;100.00
7157;BME280;3620;49.862;8.758;2023-02-01T09:22:22;99708.09;;;6.65;100.00
7157;BME280;3620;49.862;8.758;2023-02-01T09:24:48;99723.63;;;6.72;100.00
7157;BME280;3620;49.862;8.758;2023-02-01T09:27:15;99727.69;;;6.86;100.00
7157;BME280;3620;49.862;8.758;2023-02-01T09:29:41;99724.00;;;6.95;100.00
7157;BME280;3620;49.862;8.758;2023-02-01T09:32:09;99749.97;;;7.02;100.00
7157;BME280;3620;49.862;8.758;2023-02-01T09:34:36;99733.22;;;7.11;100.00
7157;BME280;3620;49.862;8.758;2023-02-01T09:37:02;99728.09;;;7.05;100.00
7157;BME280;3620;49.862;8.758;2023-02-01T09:39:29;99737.50;;;7.13;100.00
7157;BME280;3620;49.862;8.758;2023-02-01T09:42:02;99738.06;;;6.89;100.00
7157;BME280;3620;49.862;8.758;2023-02-01T09:47:45;99759.59;;;7.00;100.00
7157;BME280;3620;49.862;8.758;2023-02-01T09:50:15;99754.47;;;6.96;98.74
7157;BME280;3620;49.862;8.758;2023-02-01T09:52:48;99763.88;;;7.04;98.73
7157;BME280;3620;49.862;8.758;2023-02-01T09:55:21;99772.56;;;7.06;97.90
7157;BME280;3620;49.862;8.758;2023-02-01T09:57:53;99782.94;;;7.09;97.06
7157;BME280;3620;49.862;8.758;2023-02-01T10:00:25;99778.63;;;7.07;95.74
7157;BME280;3620;49.862;8.758;2023-02-01T10:02:55;99788.16;;;7.09;94.96
7157;BME280;3620;49.862;8.758;2023-02-01T10:05:47;99783.13;;;7.00;94.93
7157;BME280;3620;49.862;8.758;2023-02-01T10:08:26;99784.88;;;7.01;94.99
7157;BME280;3620;49.862;8.758;2023-02-01T10:11:04;99783.03;;;7.06;94.54
7157;BME280;3620;49.862;8.758;2023-02-01T10:13:45;99793.50;;;7.06;93.68
7157;BME280;3620;49.862;8.758;2023-02-01T10:16:25;99781.13;;;7.11;93.43
7157;BME280;3620;49.862;8.758;2023-02-01T10:22:03;99778.47;;;7.14;91.93
7157;BME280;3620;49.862;8.758;2023-02-01T10:24:41;99754.16;;;7.09;92.98
7157;BME280;3620;49.862;8.758;2023-02-01T10:27:13;99768.88;;;7.13;91.45
7157;BME280;3620;49.862;8.758;2023-02-01T10:29:42;99756.31;;;7.29;90.81
7157;BME280;3620;49.862;8.758;2023-02-01T10:32:13;99752.84;;;7.28;90.97
7157;BME280;3620;49.862;8.758;2023-02-01T10:34:41;99755.97;;;7.44;91.13
7157;BME280;3620;49.862;8.758;2023-02-01T10:37:16;99749.09;;;7.38;90.36
7157;BME280;3620;49.862;8.758;2023-02-01T10:39:45;99742.78;;;7.47;90.10
7157;BME280;3620;49.862;8.758;2023-02-01T10:42:12;99755.53;;;7.61;89.95
7157;BME280;3620;49.862;8.758;2023-02-01T10:44:42;99740.06;;;7.52;90.49
7157;BME280;3620;49.862;8.758;2023-02-01T10:47:11;99740.97;;;7.49;90.57
7157;BME280;3620;49.862;8.758;2023-02-01T10:49:40;99729.97;;;7.36;89.82
7157;BME280;3620;49.862;8.758;2023-02-01T10:52:13;99731.69;;;7.37;89.63
7157;BME280;3620;49.862;8.758;2023-02-01T10:54:42;99729.91;;;7.39;90.21
7157;BME280;3620;49.862;8.758;2023-02-01T10:57:10;99733.13;;;7.51;90.81
7157;BME280;3620;49.862;8.758;2023-02-01T10:59:38;99721.47;;;7.28;90.38
7157;BME280;3620;49.862;8.758;2023-02-01T11:02:15;99722.88;;;7.40;89.61
7157;BME280;3620;49.862;8.758;2023-02-01T11:04:45;99723.09;;;7.32;90.19
7157;BME280;3620;49.862;8.758;2023-02-01T11:07:17;99701.34;;;7.29;90.38
7157;BME280;3620;49.862;8.758;2023-02-01T11:09:49;99696.06;;;7.32;90.00
7157;BME280;3620;49.862;8.758;2023-02-01T11:12:26;99693.56;;;7.27;89.88
7157;BME280;3620;49.862;8.758;2023-02-01T11:14:58;99694.47;;;7.26;89.77
7157;BME280;3620;49.862;8.758;2023-02-01T11:17:27;99697.91;;;7.27;88.93
7157;BME280;3620;49.862;8.758;2023-02-01T11:19:59;99705.44;;;7.40;88.37
7157;BME280;3620;49.862;8.758;2023-02-01T11:22:28;99705.53;;;7.37;89.37
7157;BME280;3620;49.862;8.758;2023-02-01T11:24:55;99715.84;;;7.44;88.78
7157;BME280;3620;49.862;8.758;2023-02-01T11:27:23;99720.22;;;7.43;89.32
7157;BME280;3620;49.862;8.758;2023-02-01T11:29:52;99707.13;;;7.43;89.04
7157;BME280;3620;49.862;8.758;2023-02-01T11:32:20;99708.75;;;7.49;89.04
7157;BME280;3620;49.862;8.758;2023-02-01T11:34:51;99712.47;;;7.38;87.67
7157;BME280;3620;49.862;8.758;2023-02-01T11:37:23;99709.63;;;7.48;88.10
7157;BME280;3620;49.862;8.758;2023-02-01T11:39:57;99694.50;;;7.59;88.04
7157;BME280;3620;49.862;8.758;2023-02-01T11:42:24;99711.94;;;7.60;87.60
7157;BME280;3620;49.862;8.758;2023-02-01T11:45:15;99704.91;;;7.60;86.49
7157;BME280;3620;49.862;8.758;2023-02-01T11:47:42;99710.66;;;7.42;87.23
7157;BME280;3620;49.862;8.758;2023-02-01T11:50:15;99703.19;;;7.25;87.64
7157;BME280;3620;49.862;8.758;2023-02-01T11:52:53;99706.78;;;7.21;87.44
7157;BME280;3620;49.862;8.758;2023-02-01T11:55:40;99705.75;;;7.28;87.45
7157;BME280;3620;49.862;8.758;2023-02-01T11:58:22;99716.34;;;7.22;87.85
7157;BME280;3620;49.862;8.758;2023-02-01T12:01:07;99708.69;;;7.15;87.99
7157;BME280;3620;49.862;8.758;2023-02-01T12:04:07;99697.22;;;7.20;87.44
7157;BME280;3620;49.862;8.758;2023-02-01T12:06:47;99711.22;;;7.19;87.62
7157;BME280;3620;49.862;8.758;2023-02-01T12:09:26;99692.13;;;7.14;87.88
7157;BME280;3620;49.862;8.758;2023-02-01T12:12:06;99697.25;;;7.19;87.54
7157;BME280;3620;49.862;8.758;2023-02-01T12:14:51;99693.78;;;7.18;88.11
7157;BME280;3620;49.862;8.758;2023-02-01T12:17:39;99696.59;;;7.11;88.26
7157;BME280;3620;49.862;8.758;2023-02-01T12:20:23;99669.47;;;7.13;88.20
7157;BME280;3620;49.862;8.758;2023-02-01T12:23:05;99671.28;;;7.11;87.90
7157;BME280;3620;49.862;8.758;2023-02-01T12:25:45;99667.31;;;7.30;87.90
7157;BME280;3620;49.862;8.758;2023-02-01T12:28:38;99672.47;;;7.33;87.03
7157;BME280;3620;49.862;8.758;2023-02-01T12:34:29;99669.19;;;7.25;87.66
7157;BME280;3620;49.862;8.758;2023-02-01T12:37:06;99682.44;;;7.19;87.45
7157;BME280;3620;49.862;8.758;2023-02-01T12:39:43;99671.88;;;7.22;88.27
7157;BME280;3620;49.862;8.758;2023-02-01T12:42:17;99669.25;;;7.22;88.74
7157;BME280;3620;49.862;8.758;2023-02-01T12:44:51;99668.47;;;7.19;89.43
7157;BME280;3620;49.862;8.758;2023-02-01T12:47:24;99654.53;;;7.20;88.28
7157;BME280;3620;49.862;8.758;2023-02-01T12:49:58;99651.63;;;7.30;88.17
7157;BME280;3620;49.862;8.758;2023-02-01T12:52:32;99652.63;;;7.25;87.72
7157;BME280;3620;49.862;8.758;2023-02-01T12:55:05;99650.06;;;7.23;88.09
7157;BME280;3620;49.862;8.758;2023-02-01T12:57:35;99634.03;;;7.35;87.64
7157;BME280;3620;49.862;8.758;2023-02-01T13:00:13;99615.81;;;7.32;87.29
7157;BME280;3620;49.862;8.758;2023-02-01T13:02:43;99619.34;;;7.30;87.07
7157;BME280;3620;49.862;8.758;2023-02-01T13:05:17;99633.44;;;7.26;86.58
7157;BME280;3620;49.862;8.758;2023-02-01T13:07:49;99627.44;;;7.21;87.01
7157;BME280;3620;49.862;8.758;2023-02-01T13:10:21;99618.50;;;7.29;86.41
7157;BME280;3620;49.862;8.758;2023-02-01T13:12:55;99626.56;;;7.20;86.71
7157;BME280;3620;49.862;8.758;2023-02-01T13:15:30;99609.75;;;7.30;85.92
7157;BME280;3620;49.862;8.758;2023-02-01T13:18:01;99609.81;;;7.27;85.85
7157;BME280;3620;49.862;8.758;2023-02-01T13:20:31;99616.88;;;7.25;86.43
7157;BME280;3620;49.862;8.758;2023-02-01T13:23:02;99617.72;;;7.26;85.50
7157;BME280;3620;49.862;8.758;2023-02-01T13:25:35;99613.19;;;7.32;85.51
7157;BME280;3620;49.862;8.758;2023-02-01T13:28:05;99620.81;;;7.40;85.65
7157;BME280;3620;49.862;8.758;2023-02-01T13:30:42;99630.34;;;7.43;85.58
7157;BME280;3620;49.862;8.758;2023-02-01T13:33:29;99626.28;;;7.32;85.97
7157;BME280;3620;49.862;8.758;2023-02-01T13:36:24;99625.28;;;7.36;85.86
7157;BME280;3620;49.862;8.758;2023-02-01T13:39:25;99625.75;;;7.18;86.52
7157;BME280;3620;49.862;8.758;2023-02-01T13:41:58;99634.28;;;7.26;86.44
7157;BME280;3620;49.862;8.758;2023-02-01T13:44:28;99635.25;;;7.22;86.96
7157;BME280;3620;49.862;8.758;2023-02-01T13:47:00;99624.88;;;7.19;87.11
7157;BME280;3620;49.862;8.758;2023-02-01T13:49:30;99636.31;;;7.15;87.34
7157;BME280;3620;49.862;8.758;2023-02-01T13:51:58;99638.69;;;7.24;86.77
7157;BME280;3620;49.862;8.758;2023-02-01T13:54:30;99634.03;;;7.35;86.78